createdAt,value
2022-11-03T00:01:09.297Z,15.35
2022-11-03T00:03:11.810Z,15.41
2022-11-03T00:05:32.440Z,15.37
2022-11-03T00:07:34.674Z,15.36
2022-11-03T00:09:39.352Z,15.27
2022-11-03T00:11:45.411Z,15.37
2022-11-03T00:13:47.395Z,15.39
2022-11-03T00:15:50.226Z,15.40
2022-11-03T00:17:52.442Z,15.35
2022-11-03T00:19:54.563Z,15.35
2022-11-03T00:21:59.581Z,15.33
2022-11-03T00:24:05.261Z,15.32
2022-11-03T00:26:16.860Z,15.25
2022-11-03T00:28:18.882Z,15.29
2022-11-03T00:30:21.067Z,15.30
2022-11-03T00:32:23.220Z,15.35
2022-11-03T00:34:25.335Z,15.36
2022-11-03T00:36:34.739Z,15.32
2022-11-03T00:38:37.978Z,15.30
2022-11-03T00:41:17.529Z,15.31
2022-11-03T00:43:39.478Z,15.30
2022-11-03T00:45:41.912Z,15.32
2022-11-03T00:48:03.960Z,15.30
2022-11-03T00:50:06.391Z,15.36
2022-11-03T00:52:08.515Z,15.38
2022-11-03T00:54:10.491Z,15.32
2022-11-03T00:56:24.896Z,15.23
2022-11-03T00:58:26.989Z,15.37
2022-11-03T01:00:49.120Z,15.33
2022-11-03T01:02:51.602Z,15.34
2022-11-03T01:05:12.252Z,15.33
2022-11-03T01:07:14.193Z,15.34
2022-11-03T01:09:23.084Z,15.26
2022-11-03T01:11:43.719Z,15.33
2022-11-03T01:13:46.923Z,15.30
2022-11-03T01:15:49.028Z,15.30
2022-11-03T01:17:51.207Z,15.30
2022-11-03T01:19:53.683Z,15.38
2022-11-03T01:21:55.958Z,15.40
2022-11-03T01:24:02.162Z,15.39
2022-11-03T01:26:06.374Z,15.40
2022-11-03T01:28:08.440Z,15.46
2022-11-03T01:30:13.595Z,15.44
2022-11-03T01:32:19.031Z,15.43
2022-11-03T01:34:22.449Z,15.46
2022-11-03T01:36:25.286Z,15.46
2022-11-03T01:38:31.396Z,15.46
2022-11-03T01:40:33.704Z,15.46
2022-11-03T01:42:35.787Z,15.50
2022-11-03T01:44:43.715Z,15.50
2022-11-03T01:47:02.777Z,15.44
2022-11-03T01:49:11.739Z,15.46
2022-11-03T01:51:17.055Z,15.47
2022-11-03T01:53:20.082Z,15.51
2022-11-03T01:55:30.014Z,15.49
2022-11-03T01:57:41.507Z,15.47
2022-11-03T01:59:45.072Z,15.51
2022-11-03T02:01:49.043Z,15.49
2022-11-03T02:04:08.524Z,15.44
2022-11-03T02:06:11.760Z,15.48
2022-11-03T02:08:26.018Z,15.45
2022-11-03T02:10:28.201Z,15.49
2022-11-03T02:12:32.228Z,15.46
2022-11-03T02:14:58.619Z,15.39
2022-11-03T02:17:05.913Z,15.42
2022-11-03T02:19:20.126Z,15.46
2022-11-03T02:21:29.018Z,15.43
2022-11-03T02:23:44.479Z,15.42
2022-11-03T02:25:55.156Z,15.39
2022-11-03T02:27:57.596Z,15.44
2022-11-03T02:30:00.342Z,15.39
2022-11-03T02:32:12.263Z,15.35
2022-11-03T02:34:23.625Z,15.40
2022-11-03T02:36:36.801Z,15.36
2022-11-03T02:38:50.549Z,15.32
2022-11-03T02:40:55.962Z,15.38
2022-11-03T02:42:59.545Z,15.42
2022-11-03T02:45:05.699Z,15.34
2022-11-03T02:47:14.390Z,15.40
2022-11-03T02:49:16.791Z,15.41
2022-11-03T02:51:21.104Z,15.40
2022-11-03T02:53:23.455Z,15.36
2022-11-03T02:55:57.463Z,15.30
2022-11-03T02:58:15.485Z,15.39
2022-11-03T03:00:18.418Z,15.30
2022-11-03T03:02:32.872Z,15.20
2022-11-03T03:04:43.396Z,15.29
2022-11-03T03:06:58.172Z,15.28
2022-11-03T03:09:06.002Z,15.34
2022-11-03T03:11:11.725Z,15.33
2022-11-03T03:13:17.339Z,15.28
2022-11-03T03:15:23.988Z,15.23
2022-11-03T03:17:40.601Z,15.29
2022-11-03T03:20:03.801Z,15.30
2022-11-03T03:22:16.347Z,15.24
2022-11-03T03:24:33.726Z,15.22
2022-11-03T03:26:45.037Z,15.28
2022-11-03T03:28:55.613Z,15.28
2022-11-03T03:31:01.258Z,15.33
2022-11-03T03:33:08.069Z,15.29
2022-11-03T03:35:13.969Z,15.27
2022-11-03T03:37:17.670Z,15.32
2022-11-03T03:39:23.762Z,15.30
2022-11-03T03:41:28.752Z,15.35
2022-11-03T03:43:33.384Z,15.27
2022-11-03T03:45:37.136Z,15.28
2022-11-03T03:47:39.567Z,15.22
2022-11-03T03:49:41.640Z,15.20
2022-11-03T03:51:46.175Z,15.26
2022-11-03T03:53:54.914Z,15.24
2022-11-03T03:55:58.534Z,15.31
2022-11-03T03:58:00.803Z,15.28
2022-11-03T04:00:03.435Z,15.30
2022-11-03T04:02:15.119Z,15.23
2022-11-03T04:04:17.488Z,15.24
2022-11-03T04:06:19.791Z,15.21
2022-11-03T04:08:22.266Z,15.22
2022-11-03T04:10:25.071Z,15.30
2022-11-03T04:12:45.552Z,15.24
2022-11-03T04:15:06.298Z,15.25
2022-11-03T04:17:39.163Z,15.16
2022-11-03T04:20:05.696Z,15.21
2022-11-03T04:22:17.524Z,15.21
2022-11-03T04:24:19.499Z,15.20
2022-11-03T04:26:23.286Z,15.20
2022-11-03T04:28:26.215Z,15.15
2022-11-03T04:30:28.326Z,15.18
2022-11-03T04:32:30.742Z,15.14
2022-11-03T04:34:33.126Z,15.19
2022-11-03T04:36:35.236Z,15.14
2022-11-03T04:38:38.234Z,15.16
2022-11-03T04:40:50.582Z,15.11
2022-11-03T04:42:56.268Z,15.16
2022-11-03T04:45:02.930Z,15.16
2022-11-03T04:47:13.135Z,15.14
2022-11-03T04:49:23.643Z,15.11
2022-11-03T04:51:30.330Z,15.12
2022-11-03T04:53:33.764Z,15.07
2022-11-03T04:55:35.755Z,15.09
2022-11-03T04:57:37.895Z,15.12
2022-11-03T04:59:41.656Z,15.02
2022-11-03T05:01:46.052Z,15.03
2022-11-03T05:03:50.565Z,15.02
2022-11-03T05:05:52.960Z,15.03
2022-11-03T05:07:58.580Z,14.98
2022-11-03T05:10:01.438Z,15.00
2022-11-03T05:12:03.996Z,15.00
2022-11-03T05:14:25.013Z,14.92
2022-11-03T05:16:27.118Z,14.98
2022-11-03T05:18:35.584Z,14.98
2022-11-03T05:20:44.581Z,15.00
2022-11-03T05:22:46.585Z,15.00
2022-11-03T05:24:56.484Z,15.00
2022-11-03T05:27:00.232Z,15.00
2022-11-03T05:29:09.712Z,14.92
2022-11-03T05:31:30.322Z,14.93
2022-11-03T05:33:35.687Z,14.92
2022-11-03T05:35:37.954Z,14.95
2022-11-03T05:37:42.633Z,14.93
2022-11-03T05:39:48.595Z,14.89
2022-11-03T05:41:52.543Z,14.95
2022-11-03T05:44:37.229Z,14.96
2022-11-03T05:46:39.274Z,14.96
2022-11-03T05:48:45.709Z,14.96
2022-11-03T05:50:47.768Z,14.99
2022-11-03T05:52:53.385Z,14.98
2022-11-03T05:54:58.743Z,14.97
2022-11-03T05:57:01.876Z,14.97
2022-11-03T05:59:05.175Z,15.00
2022-11-03T06:01:16.488Z,14.94
2022-11-03T06:03:27.903Z,14.99
2022-11-03T06:05:32.044Z,15.04
2022-11-03T06:07:34.618Z,15.07
2022-11-03T06:09:36.473Z,15.03
2022-11-03T06:11:38.349Z,15.07
2022-11-03T06:13:40.248Z,15.08
2022-11-03T06:15:44.340Z,15.06
2022-11-03T06:17:46.295Z,15.01
2022-11-03T06:19:50.763Z,14.98
2022-11-03T06:21:55.992Z,15.01
2022-11-03T06:23:59.511Z,15.06
2022-11-03T06:26:08.543Z,15.04
2022-11-03T06:28:19.030Z,15.08
2022-11-03T06:30:30.358Z,15.00
2022-11-03T06:32:33.690Z,15.09
2022-11-03T06:35:02.048Z,15.09
2022-11-03T06:37:45.816Z,15.07
2022-11-03T06:39:58.529Z,15.07
2022-11-03T06:42:11.547Z,15.02
2022-11-03T06:44:24.208Z,15.11
2022-11-03T06:46:26.925Z,15.18
2022-11-03T06:48:30.193Z,15.17
2022-11-03T06:50:33.479Z,15.19
2022-11-03T06:52:40.010Z,15.16
2022-11-03T06:54:42.339Z,15.19
2022-11-03T06:56:44.745Z,15.14
2022-11-03T06:58:51.351Z,15.17
2022-11-03T07:00:57.734Z,15.16
2022-11-03T07:03:37.621Z,15.11
2022-11-03T07:05:40.463Z,15.18
2022-11-03T07:07:42.497Z,15.21
2022-11-03T07:09:45.042Z,15.19
2022-11-03T07:11:53.697Z,15.21
2022-11-03T07:14:22.676Z,15.16
2022-11-03T07:16:32.309Z,15.30
2022-11-03T07:18:42.975Z,15.28
2022-11-03T07:20:45.507Z,15.29
2022-11-03T07:22:48.803Z,15.30
2022-11-03T07:24:54.784Z,15.26
2022-11-03T07:27:20.001Z,15.15
2022-11-03T07:29:26.646Z,15.13
2022-11-03T07:31:28.776Z,15.13
2022-11-03T07:33:32.432Z,15.19
2022-11-03T07:36:13.261Z,15.20
2022-11-03T07:38:11.402Z,15.19
2022-11-03T07:40:23.839Z,15.24
2022-11-03T07:45:59.480Z,15.30
2022-11-03T07:48:20.082Z,15.30
2022-11-03T07:50:22.144Z,15.42
2022-11-03T07:52:27.227Z,15.48
2022-11-03T07:54:33.151Z,15.41
2022-11-03T07:56:48.707Z,15.39
2022-11-03T07:59:00.729Z,15.43
2022-11-03T08:04:56.977Z,15.46
2022-11-03T08:06:59.024Z,15.54
2022-11-03T08:09:01.272Z,15.59
2022-11-03T08:11:03.383Z,15.64
2022-11-03T08:13:06.027Z,15.63
2022-11-03T08:15:08.870Z,15.66
2022-11-03T08:17:10.736Z,15.65
2022-11-03T08:19:12.858Z,15.71
2022-11-03T08:21:15.226Z,15.77
2022-11-03T08:23:25.619Z,15.77
2022-11-03T08:25:28.154Z,15.73
2022-11-03T08:27:30.295Z,15.76
2022-11-03T08:29:32.668Z,15.80
2022-11-03T08:31:34.707Z,15.82
2022-11-03T08:33:36.850Z,15.83
2022-11-03T08:35:39.253Z,15.89
2022-11-03T08:37:41.349Z,15.88
2022-11-03T08:39:43.506Z,15.93
2022-11-03T08:41:45.908Z,15.95
2022-11-03T08:43:48.561Z,15.95
2022-11-03T08:45:54.112Z,16.03
2022-11-03T08:47:57.113Z,16.06
2022-11-03T08:50:00.174Z,16.10
2022-11-03T08:52:02.300Z,16.13
2022-11-03T08:54:04.737Z,16.23
2022-11-03T08:56:12.521Z,16.25
2022-11-03T08:58:16.409Z,16.30
2022-11-03T09:00:18.906Z,16.31
2022-11-03T09:02:21.124Z,16.44
2022-11-03T09:04:23.413Z,16.53
2022-11-03T09:06:25.727Z,16.61
2022-11-03T09:10:49.849Z,16.73
2022-11-03T09:12:52.026Z,16.68
2022-11-03T09:14:54.325Z,16.69
2022-11-03T09:16:56.590Z,16.71
2022-11-03T09:18:58.708Z,16.73
2022-11-03T09:21:00.940Z,16.74
2022-11-03T09:23:03.053Z,16.71
2022-11-03T09:25:06.189Z,16.73
2022-11-03T09:27:08.015Z,16.72
2022-11-03T09:29:09.982Z,16.72
2022-11-03T09:31:12.154Z,16.69
2022-11-03T09:33:17.015Z,16.70
2022-11-03T09:35:19.655Z,16.66
2022-11-03T09:37:23.166Z,16.70
2022-11-03T09:39:25.656Z,16.71
2022-11-03T09:41:45.904Z,16.68
2022-11-03T09:43:51.059Z,16.74
2022-11-03T09:45:54.439Z,16.78
2022-11-03T09:47:56.776Z,16.79
2022-11-03T09:49:59.854Z,16.77
2022-11-03T09:52:04.431Z,16.74
2022-11-03T09:54:06.750Z,16.78
2022-11-03T09:56:11.096Z,16.77
2022-11-03T09:58:15.377Z,16.78
2022-11-03T10:00:20.945Z,16.80
2022-11-03T10:02:26.263Z,16.80
2022-11-03T10:04:30.173Z,16.87
2022-11-03T10:06:32.378Z,16.92
2022-11-03T10:08:39.382Z,16.97
2022-11-03T10:10:41.759Z,17.04
2022-11-03T10:12:44.837Z,17.12
2022-11-03T10:14:47.613Z,17.10
2022-11-03T10:16:55.877Z,17.14
2022-11-03T10:18:58.316Z,17.19
2022-11-03T10:21:13.162Z,17.20
2022-11-03T10:23:15.201Z,17.23
2022-11-03T10:25:36.486Z,17.24
2022-11-03T10:27:38.493Z,17.30
2022-11-03T10:29:42.380Z,17.27
2022-11-03T10:31:52.478Z,17.28
2022-11-03T10:33:56.267Z,17.32
2022-11-03T10:36:05.602Z,17.33
2022-11-03T10:38:27.908Z,17.33
2022-11-03T10:40:52.788Z,17.36
2022-11-03T10:43:01.072Z,17.46
2022-11-03T10:45:18.098Z,17.42
2022-11-03T10:47:32.399Z,17.40
2022-11-03T10:49:42.505Z,17.51
2022-11-03T10:51:49.687Z,17.47
2022-11-03T10:53:51.937Z,17.53
2022-11-03T10:55:55.807Z,17.56
2022-11-03T10:57:58.811Z,17.55
2022-11-03T11:00:01.473Z,17.58
2022-11-03T11:02:10.095Z,17.61
2022-11-03T11:04:16.957Z,17.63
2022-11-03T11:06:26.668Z,17.64
2022-11-03T11:08:28.815Z,17.71
2022-11-03T11:10:31.748Z,17.73
2022-11-03T11:12:34.256Z,17.78
2022-11-03T11:14:39.674Z,17.79
2022-11-03T11:16:59.374Z,17.72
2022-11-03T11:19:02.266Z,17.77
2022-11-03T11:21:16.250Z,17.72
2022-11-03T11:23:27.207Z,17.74
2022-11-03T11:26:07.760Z,17.70
2022-11-03T11:28:19.704Z,17.72
2022-11-03T11:30:21.729Z,17.81
2022-11-03T11:32:42.432Z,17.77
2022-11-03T11:34:44.487Z,17.86
2022-11-03T11:36:47.548Z,17.87
2022-11-03T11:38:49.585Z,17.88
2022-11-03T11:40:52.054Z,17.89
2022-11-03T11:43:03.458Z,17.89
2022-11-03T11:45:05.990Z,17.94
2022-11-03T11:47:45.845Z,17.91
2022-11-03T11:49:48.508Z,17.98
2022-11-03T11:51:51.459Z,17.94
2022-11-03T11:54:16.202Z,17.93
2022-11-03T11:56:42.943Z,17.87
2022-11-03T11:58:52.052Z,17.94
2022-11-03T12:01:01.470Z,17.93
2022-11-03T12:03:07.072Z,17.98
2022-11-03T12:05:19.817Z,17.93
2022-11-03T12:07:37.692Z,17.95
2022-11-03T12:09:40.483Z,17.98
2022-11-03T12:11:55.375Z,17.93
2022-11-03T12:13:58.195Z,18.00
2022-11-03T12:16:30.081Z,17.91
2022-11-03T12:18:49.346Z,17.87
2022-11-03T12:20:52.413Z,17.96
2022-11-03T12:22:54.366Z,17.98
2022-11-03T12:24:57.619Z,18.02
2022-11-03T12:27:03.423Z,18.03
2022-11-03T12:29:06.157Z,18.10
2022-11-03T12:31:08.661Z,18.10
2022-11-03T12:33:11.004Z,18.08
2022-11-03T12:35:15.504Z,18.09
2022-11-03T12:37:17.906Z,18.11
2022-11-03T12:39:20.226Z,18.11
2022-11-03T12:45:15.831Z,18.08
2022-11-03T12:47:21.328Z,18.11
2022-11-03T12:49:23.759Z,18.12
2022-11-03T12:51:25.844Z,18.18
2022-11-03T12:53:28.256Z,18.25
2022-11-03T12:55:30.773Z,18.25
2022-11-03T12:57:33.110Z,18.26
2022-11-03T12:59:35.288Z,18.30
2022-11-03T13:01:38.225Z,18.27
2022-11-03T13:03:41.342Z,18.34
2022-11-03T13:05:43.518Z,18.35
2022-11-03T13:07:45.639Z,18.38
2022-11-03T13:09:47.896Z,18.39
2022-11-03T13:12:08.576Z,18.37
2022-11-03T13:14:10.753Z,18.36
2022-11-03T13:16:12.767Z,18.35
2022-11-03T13:18:14.828Z,18.35
2022-11-03T13:20:17.200Z,18.33
2022-11-03T13:22:20.055Z,18.33
2022-11-03T13:24:22.406Z,18.33
2022-11-03T13:26:24.719Z,18.28
2022-11-03T13:28:26.730Z,18.27
2022-11-03T13:30:29.011Z,18.30
2022-11-03T13:32:33.984Z,18.31
2022-11-03T13:34:36.203Z,18.27
2022-11-03T13:36:38.694Z,18.25
2022-11-03T13:38:43.359Z,18.22
2022-11-03T13:41:06.943Z,18.22
2022-11-03T13:43:08.413Z,18.22
2022-11-03T13:45:10.992Z,18.22
2022-11-03T13:47:16.089Z,18.09
2022-11-03T13:51:41.158Z,18.12
2022-11-03T13:56:08.539Z,17.99
2022-11-03T14:00:33.041Z,18.07
2022-11-03T14:04:57.187Z,18.03
2022-11-03T14:06:59.391Z,17.95
2022-11-03T14:09:04.291Z,17.90
2022-11-03T14:11:24.871Z,17.91
2022-11-03T14:13:27.199Z,17.78
2022-11-03T14:15:29.665Z,17.76
2022-11-03T14:17:34.012Z,17.68
2022-11-03T14:19:42.939Z,17.60
2022-11-03T14:21:47.670Z,17.67
2022-11-03T14:23:49.932Z,17.60
2022-11-03T14:26:00.488Z,17.60
2022-11-03T14:28:18.677Z,17.58
2022-11-03T14:30:24.879Z,17.62
2022-11-03T14:32:27.108Z,17.63
2022-11-03T14:34:29.404Z,17.54
2022-11-03T14:36:31.692Z,17.47
2022-11-03T14:38:36.216Z,17.39
2022-11-03T14:40:57.058Z,17.33
2022-11-03T14:42:59.370Z,17.27
2022-11-03T14:45:01.720Z,17.24
2022-11-03T14:47:05.435Z,17.23
2022-11-03T14:49:07.523Z,17.19
2022-11-03T14:51:10.305Z,17.12
2022-11-03T14:53:12.329Z,17.01
2022-11-03T14:55:14.446Z,16.97
2022-11-03T14:57:17.335Z,16.99
2022-11-03T14:59:19.364Z,16.93
2022-11-03T15:01:21.784Z,16.89
2022-11-03T15:03:24.108Z,16.84
2022-11-03T15:05:44.304Z,16.73
2022-11-03T15:07:46.266Z,16.76
2022-11-03T15:09:48.548Z,16.74
2022-11-03T15:11:50.325Z,16.73
2022-11-03T15:13:52.833Z,16.63
2022-11-03T15:15:54.955Z,16.62
2022-11-03T15:18:02.452Z,16.59
2022-11-03T15:20:05.370Z,16.53
2022-11-03T15:22:07.732Z,16.51
2022-11-03T15:26:31.786Z,16.47
2022-11-03T15:28:33.773Z,16.46
2022-11-03T15:34:22.879Z,16.56
2022-11-03T15:36:25.137Z,16.59
2022-11-03T15:38:27.196Z,16.57
2022-11-03T15:41:32.294Z,16.48
2022-11-03T15:43:34.304Z,16.54
2022-11-03T15:45:36.316Z,16.48
2022-11-03T15:47:39.214Z,16.50
2022-11-03T15:49:41.430Z,16.47
2022-11-03T15:51:43.344Z,16.46
2022-11-03T15:53:45.316Z,16.43
2022-11-03T15:55:47.434Z,16.37
2022-11-03T15:57:50.696Z,16.34
2022-11-03T15:59:55.308Z,16.32
2022-11-03T16:02:08.656Z,16.31
2022-11-03T16:04:24.687Z,16.25
2022-11-03T16:06:40.538Z,16.18
2022-11-03T16:08:48.996Z,16.17
2022-11-03T16:10:57.331Z,16.05
2022-11-03T16:13:00.280Z,16.05
2022-11-03T16:15:02.405Z,16.03
2022-11-03T16:17:05.454Z,15.95
2022-11-03T16:19:07.382Z,15.94
2022-11-03T16:21:12.148Z,15.88
2022-11-03T16:23:14.228Z,15.87
2022-11-03T16:34:07.418Z,15.44
2022-11-03T16:36:09.766Z,15.49
2022-11-03T16:38:13.631Z,15.48
2022-11-03T16:40:19.296Z,15.46
2022-11-03T16:42:21.792Z,15.46
2022-11-03T16:44:23.742Z,15.45
2022-11-03T16:46:25.822Z,15.41
2022-11-03T16:48:27.734Z,15.37
2022-11-03T16:50:30.095Z,15.34
2022-11-03T16:52:31.931Z,15.30
2022-11-03T16:54:33.932Z,15.31
2022-11-03T16:56:36.286Z,15.29
2022-11-03T16:58:38.337Z,15.21
2022-11-03T17:00:40.310Z,15.18
2022-11-03T17:03:45.271Z,15.02
2022-11-03T17:05:47.422Z,15.03
2022-11-03T17:07:53.683Z,15.00
2022-11-03T17:09:56.250Z,14.98
2022-11-03T17:11:58.303Z,14.94
2022-11-03T17:16:02.234Z,14.90
2022-11-03T17:18:04.324Z,14.85
2022-11-03T17:20:06.988Z,14.83
2022-11-03T17:22:09.255Z,14.78
2022-11-03T17:24:11.521Z,14.75
2022-11-03T17:26:13.858Z,14.73
2022-11-03T17:28:18.949Z,14.68
2022-11-03T17:30:26.312Z,14.62
2022-11-03T17:32:37.105Z,14.54
2022-11-03T17:34:42.188Z,14.55
2022-11-03T17:36:44.171Z,14.53
2022-11-03T17:38:46.193Z,14.49
2022-11-03T17:40:48.516Z,14.49
2022-11-03T17:42:51.218Z,14.44
2022-11-03T17:44:55.924Z,14.41
2022-11-03T17:46:57.954Z,14.35
2022-11-03T17:49:00.167Z,14.31
2022-11-03T17:51:05.327Z,14.27
2022-11-03T17:53:13.717Z,14.23
2022-11-03T17:55:31.386Z,14.08
2022-11-03T17:57:33.852Z,14.12
2022-11-03T17:59:36.169Z,14.12
2022-11-03T18:01:38.379Z,14.07
2022-11-03T18:03:40.782Z,14.04
2022-11-03T18:05:42.951Z,13.99
2022-11-03T18:07:45.028Z,13.97
2022-11-03T18:09:47.663Z,13.94
2022-11-03T18:12:08.661Z,13.90
2022-11-03T18:14:10.922Z,13.85
2022-11-03T18:16:13.226Z,13.80
2022-11-03T18:18:18.845Z,13.67
2022-11-03T18:20:32.148Z,13.64
2022-11-03T18:22:34.115Z,13.65
2022-11-03T18:24:36.020Z,13.38
2022-11-03T18:26:38.223Z,13.36
2022-11-03T18:28:43.328Z,13.39
2022-11-03T18:30:48.632Z,13.42
2022-11-03T18:32:50.714Z,13.46
2022-11-03T18:34:52.831Z,13.44
2022-11-03T18:36:55.425Z,13.44
2022-11-03T18:38:58.244Z,13.40
2022-11-03T18:41:01.058Z,13.43
2022-11-03T18:43:11.722Z,13.33
2022-11-03T18:45:16.272Z,13.35
2022-11-03T18:48:20.451Z,13.20
2022-11-03T18:50:22.714Z,13.25
2022-11-03T18:52:24.799Z,13.23
2022-11-03T18:54:30.435Z,13.19
2022-11-03T18:56:35.686Z,13.17
2022-11-03T19:02:36.446Z,13.10
2022-11-03T19:04:38.643Z,13.08
2022-11-03T19:06:43.202Z,13.07
2022-11-03T19:08:48.424Z,13.05
2022-11-03T19:10:52.346Z,13.03
2022-11-03T19:12:57.751Z,12.99
2022-11-03T19:15:00.550Z,13.03
2022-11-03T19:17:22.382Z,12.97
2022-11-03T19:19:26.515Z,12.99
2022-11-03T19:21:28.605Z,12.94
2022-11-03T19:23:31.094Z,12.96
2022-11-03T19:25:33.698Z,12.97
2022-11-03T19:27:40.596Z,12.95
2022-11-03T19:29:44.094Z,12.91
2022-11-03T19:31:49.111Z,12.84
2022-11-03T19:33:54.658Z,12.84
2022-11-03T19:35:58.396Z,12.88
2022-11-03T19:38:07.246Z,12.84
2022-11-03T19:40:14.963Z,12.84
2022-11-03T19:42:37.005Z,12.83
2022-11-03T19:44:39.393Z,12.82
2022-11-03T19:46:44.789Z,12.81
2022-11-03T19:48:47.113Z,12.77
2022-11-03T19:50:49.476Z,12.66
2022-11-03T19:53:06.498Z,12.64
2022-11-03T19:55:14.062Z,12.63
2022-11-03T19:57:22.716Z,12.55
2022-11-03T19:59:24.813Z,12.50
2022-11-03T20:01:27.397Z,12.50
2022-11-03T20:03:29.569Z,12.53
2022-11-03T20:05:32.080Z,12.55
2022-11-03T20:07:34.172Z,12.58
2022-11-03T20:09:37.305Z,12.51
2022-11-03T20:11:39.277Z,12.40
2022-11-03T20:13:43.338Z,12.28
2022-11-03T20:15:45.709Z,12.14
2022-11-03T20:17:49.101Z,12.11
2022-11-03T20:19:53.408Z,12.05
2022-11-03T20:21:55.762Z,11.98
2022-11-03T20:23:58.837Z,11.97
2022-11-03T20:26:02.598Z,12.03
2022-11-03T20:28:19.159Z,12.03
2022-11-03T20:30:23.439Z,12.17
2022-11-03T20:32:25.676Z,12.19
2022-11-03T20:34:28.010Z,12.12
2022-11-03T20:36:33.515Z,12.02
2022-11-03T20:38:36.850Z,11.93
2022-11-03T20:40:39.969Z,11.88
2022-11-03T20:42:43.306Z,12.03
2022-11-03T20:44:45.361Z,12.10
2022-11-03T20:46:47.657Z,12.12
2022-11-03T20:48:50.321Z,12.03
2022-11-03T20:50:54.185Z,11.98
2022-11-03T20:52:59.435Z,11.95
2022-11-03T20:55:02.183Z,11.87
2022-11-03T20:57:06.939Z,11.85
2022-11-03T21:01:30.571Z,11.98
2022-11-03T21:05:55.367Z,12.07
2022-11-03T21:07:58.036Z,12.04
2022-11-03T21:10:00.410Z,11.99
2022-11-03T21:12:03.004Z,11.97
2022-11-03T21:14:19.646Z,11.86
2022-11-03T21:16:41.591Z,11.75
2022-11-03T21:19:02.707Z,11.72
2022-11-03T21:21:10.884Z,11.76
2022-11-03T21:23:22.577Z,11.74
2022-11-03T21:25:25.433Z,11.84
2022-11-03T21:27:27.766Z,11.87
2022-11-03T21:31:52.111Z,11.94
2022-11-03T21:33:54.306Z,11.98
2022-11-03T21:35:58.649Z,11.98
2022-11-03T21:38:01.874Z,11.93
2022-11-03T21:40:04.290Z,11.93
2022-11-03T21:42:24.708Z,11.93
2022-11-03T21:44:27.152Z,11.93
2022-11-03T21:46:29.640Z,11.91
2022-11-03T21:48:50.733Z,11.87
2022-11-03T21:50:52.882Z,11.75
2022-11-03T21:52:55.453Z,11.70
2022-11-03T21:55:05.264Z,11.59
2022-11-03T21:57:09.247Z,11.52
2022-11-03T21:59:11.727Z,11.41
2022-11-03T22:01:14.279Z,11.39
2022-11-03T22:03:16.719Z,11.41
2022-11-03T22:05:18.814Z,11.48
2022-11-03T22:07:21.868Z,11.52
2022-11-03T22:09:25.132Z,11.54
2022-11-03T22:11:27.305Z,11.51
2022-11-03T22:13:29.446Z,11.49
2022-11-03T22:18:42.364Z,11.59
2022-11-03T22:21:03.272Z,11.49
2022-11-03T22:23:24.112Z,11.45
2022-11-03T22:25:45.035Z,11.44
2022-11-03T22:27:47.636Z,11.44
2022-11-03T22:30:59.630Z,11.37
2022-11-03T22:33:02.115Z,11.31
2022-11-03T22:35:23.605Z,11.27
2022-11-03T22:37:25.953Z,11.28
2022-11-03T22:39:46.508Z,11.30
2022-11-03T22:42:07.323Z,11.28
2022-11-03T22:44:28.291Z,11.22
2022-11-03T22:46:31.049Z,11.17
2022-11-03T22:48:34.018Z,11.12
2022-11-03T22:50:36.272Z,11.16
2022-11-03T22:52:38.433Z,11.16
2022-11-03T22:54:40.584Z,11.14
2022-11-03T22:56:42.966Z,11.21
2022-11-03T22:58:45.538Z,11.26
2022-11-03T23:00:50.618Z,11.24
2022-11-03T23:02:53.983Z,11.21
2022-11-03T23:04:55.974Z,11.25
2022-11-03T23:06:57.950Z,11.29
2022-11-03T23:09:00.949Z,11.37
2022-11-03T23:11:08.925Z,11.34
2022-11-03T23:13:11.375Z,11.43
2022-11-03T23:15:32.205Z,11.30
2022-11-03T23:17:52.864Z,11.34
2022-11-03T23:20:13.671Z,11.23
2022-11-03T23:22:15.983Z,11.17
2022-11-03T23:24:40.582Z,11.13
2022-11-03T23:26:46.886Z,11.08
2022-11-03T23:28:49.355Z,11.08
2022-11-03T23:30:56.845Z,11.05
2022-11-03T23:33:00.733Z,11.07
2022-11-03T23:35:04.785Z,10.98
2022-11-03T23:37:06.891Z,10.96
2022-11-03T23:39:33.863Z,10.90
2022-11-03T23:41:35.834Z,10.92
2022-11-03T23:43:38.427Z,10.93
2022-11-03T23:45:58.760Z,10.88
2022-11-03T23:51:48.222Z,10.84
2022-11-03T23:53:51.353Z,10.81
2022-11-03T23:56:12.310Z,10.81
2022-11-03T23:58:20.342Z,10.77
